Phelan, California
Current Conditions -  °F | °C
As of 5:55 PM on Saturday 20 Dec 2014 (Local Time) from KGXA Reporting Station
Clear Clear  
Wind Chill: 52°   Ceiling: Unl
Heat Index: 52°   Visibility: 10mi
Dew Point: 42°   Wind: 10mph
Humidity: 70%   Direction: 300°WNW
Pressure: 30.12"   Gusts: NA
Location:  34.43°N, 117.57°W
Report Text: KGXA 210155Z AUTO 30009KT 270V350 10SM CLR 11/06 A3012 RMK AO2 SLP221 T01090057 TSNO $
Loading
Personal Weather Stations






























Interactive Weather Map New forecast layout! Learn more

10-Day Weather Forecast

Advertisements
Track Severe Weather on mobile